createdAt,value
2023-03-13T00:00:05.271Z,82.67
2023-03-13T00:04:14.596Z,83.30
2023-03-13T00:08:20.516Z,83.67
2023-03-13T00:12:23.740Z,84.25
2023-03-13T00:16:23.921Z,84.96
2023-03-13T00:20:24.117Z,85.25
2023-03-13T00:24:26.737Z,85.00
2023-03-13T00:28:26.874Z,85.30
2023-03-13T00:32:27.091Z,85.88
2023-03-13T00:36:29.945Z,85.61
2023-03-13T00:40:32.506Z,85.53
2023-03-13T00:44:32.857Z,85.40
2023-03-13T00:48:34.038Z,84.80
2023-03-13T00:52:34.108Z,84.88
2023-03-13T00:56:37.557Z,85.07
2023-03-13T01:00:37.760Z,84.84
2023-03-13T01:04:37.882Z,85.36
2023-03-13T01:08:37.950Z,84.47
2023-03-13T01:12:42.217Z,84.08
2023-03-13T01:16:43.164Z,83.47
2023-03-13T01:20:43.437Z,83.63
2023-03-13T01:24:43.630Z,84.37
2023-03-13T01:28:46.930Z,84.25
2023-03-13T01:32:49.604Z,84.09
2023-03-13T01:36:52.490Z,82.25
2023-03-13T01:40:53.030Z,81.80
2023-03-13T01:44:59.821Z,81.83
2023-03-13T01:49:08.217Z,81.35
2023-03-13T01:53:29.110Z,80.94
2023-03-13T01:57:33.814Z,80.62
2023-03-13T02:01:38.764Z,80.25
2023-03-13T02:05:41.588Z,80.29
2023-03-13T02:09:45.281Z,80.32
2023-03-13T02:13:46.726Z,80.63
2023-03-13T02:17:51.854Z,81.25
2023-03-13T02:22:02.374Z,80.49
2023-03-13T02:26:06.714Z,80.94
2023-03-13T02:30:11.181Z,80.81
2023-03-13T02:34:11.517Z,80.68
2023-03-13T02:38:17.074Z,80.75
2023-03-13T02:42:25.843Z,80.46
2023-03-13T02:46:26.114Z,79.92
2023-03-13T02:50:27.786Z,79.57
2023-03-13T02:54:35.253Z,79.55
2023-03-13T02:58:49.842Z,78.98
2023-03-13T03:02:52.191Z,79.36
2023-03-13T03:06:55.011Z,79.42
2023-03-13T03:10:55.498Z,79.48
2023-03-13T03:14:59.785Z,79.07
2023-03-13T03:19:00.956Z,78.99
2023-03-13T03:23:01.256Z,79.49
2023-03-13T03:27:01.384Z,80.30
2023-03-13T03:31:15.591Z,80.68
2023-03-13T03:35:15.964Z,80.45
2023-03-13T03:39:16.969Z,80.80
2023-03-13T03:43:18.841Z,80.70
2023-03-13T03:47:22.033Z,80.49
2023-03-13T03:51:22.598Z,80.35
2023-03-13T03:55:23.047Z,80.50
2023-03-13T03:59:23.402Z,80.72
2023-03-13T04:03:40.846Z,80.25
2023-03-13T04:07:41.504Z,79.68
2023-03-13T04:11:41.925Z,79.22
2023-03-13T04:15:44.235Z,79.27
2023-03-13T04:19:47.465Z,78.91
2023-03-13T04:23:47.815Z,78.72
2023-03-13T04:27:49.048Z,78.46
2023-03-13T04:31:50.101Z,77.43
2023-03-13T04:36:12.766Z,78.08
2023-03-13T04:40:32.022Z,78.00
2023-03-13T04:44:41.295Z,78.13
2023-03-13T04:48:53.456Z,77.71
2023-03-13T04:53:07.925Z,77.20
2023-03-13T04:57:27.068Z,77.32
2023-03-13T05:01:34.142Z,77.45
2023-03-13T05:05:37.744Z,77.82
2023-03-13T05:09:56.122Z,78.62
2023-03-13T05:14:16.077Z,78.73
2023-03-13T05:18:36.145Z,79.62
2023-03-13T05:22:52.530Z,81.28
2023-03-13T05:27:13.645Z,82.64
2023-03-13T05:31:27.464Z,83.42
2023-03-13T05:35:46.680Z,84.75
2023-03-13T05:40:00.649Z,85.02
2023-03-13T05:44:22.526Z,85.42
2023-03-13T05:48:57.970Z,85.28
2023-03-13T05:53:17.614Z,85.49
2023-03-13T05:57:48.610Z,85.34
2023-03-13T06:02:17.250Z,85.82
2023-03-13T06:06:20.118Z,86.51
2023-03-13T06:10:24.624Z,86.72
2023-03-13T06:14:25.542Z,87.66
2023-03-13T06:18:40.931Z,87.99
2023-03-13T06:22:41.213Z,89.45
2023-03-13T06:26:41.374Z,90.33
2023-03-13T06:30:41.900Z,91.28
2023-03-13T06:34:44.734Z,91.42
2023-03-13T06:38:45.035Z,92.09
2023-03-13T06:42:45.232Z,92.32
2023-03-13T06:46:45.801Z,92.03
2023-03-13T06:50:49.350Z,91.70
2023-03-13T06:54:49.420Z,91.59
2023-03-13T06:58:50.785Z,91.85
2023-03-13T07:02:50.904Z,91.34
2023-03-13T07:06:57.138Z,92.59
2023-03-13T07:11:01.414Z,90.52
2023-03-13T07:15:01.614Z,90.66
2023-03-13T07:19:01.748Z,90.13
2023-03-13T07:23:04.496Z,90.73
2023-03-13T07:27:07.851Z,90.90
2023-03-13T07:31:12.094Z,91.04
2023-03-13T07:35:12.561Z,90.40
2023-03-13T07:39:15.310Z,89.81
2023-03-13T07:43:15.389Z,89.45
2023-03-13T07:47:15.717Z,89.61
2023-03-13T07:51:23.214Z,88.81
2023-03-13T07:55:28.930Z,89.15
2023-03-13T07:59:31.030Z,89.15
2023-03-13T08:03:32.288Z,89.77
2023-03-13T08:07:32.625Z,88.22
2023-03-13T08:11:35.502Z,87.08
2023-03-13T08:15:35.615Z,86.66
2023-03-13T08:19:35.888Z,86.70
2023-03-13T08:23:37.064Z,86.13
2023-03-13T08:27:40.648Z,85.31
2023-03-13T08:31:45.480Z,85.02
2023-03-13T08:35:45.758Z,84.60
2023-03-13T08:39:46.256Z,83.02
2023-03-13T08:43:50.228Z,81.83
2023-03-13T08:47:54.796Z,82.21
2023-03-13T08:51:55.758Z,81.57
2023-03-13T08:55:56.814Z,81.85
2023-03-13T08:59:59.451Z,82.29
2023-03-13T09:04:03.485Z,80.81
2023-03-13T09:08:04.234Z,81.84
2023-03-13T09:12:04.438Z,81.99
2023-03-13T09:16:10.971Z,82.24
2023-03-13T09:20:14.132Z,81.91
2023-03-13T09:24:14.287Z,81.64
2023-03-13T09:28:14.544Z,81.91
2023-03-13T09:32:17.392Z,81.07
2023-03-13T09:36:21.449Z,81.22
2023-03-13T09:40:26.956Z,80.81
2023-03-13T09:44:31.709Z,79.92
2023-03-13T09:48:41.722Z,78.46
2023-03-13T09:52:44.005Z,76.37
2023-03-13T09:56:51.120Z,74.04
2023-03-13T10:00:56.611Z,72.74
2023-03-13T10:05:08.820Z,73.25
2023-03-13T10:09:23.278Z,72.10
2023-03-13T10:13:36.755Z,69.48
2023-03-13T10:17:40.620Z,70.20
2023-03-13T10:21:47.849Z,68.72
2023-03-13T10:25:47.955Z,69.08
2023-03-13T10:29:48.210Z,69.05
2023-03-13T10:33:48.393Z,68.71
2023-03-13T10:37:51.203Z,70.95
2023-03-13T10:41:53.523Z,70.39
2023-03-13T10:45:53.566Z,68.80
2023-03-13T10:49:59.553Z,69.16
2023-03-13T10:54:03.056Z,70.71
2023-03-13T10:58:15.188Z,71.20
2023-03-13T11:02:30.718Z,71.28
2023-03-13T11:06:37.676Z,71.21
2023-03-13T11:10:55.001Z,71.04
2023-03-13T11:15:02.147Z,71.00
2023-03-13T11:19:26.573Z,71.09
2023-03-13T11:23:36.375Z,70.56
2023-03-13T11:27:48.459Z,70.76
2023-03-13T11:31:54.289Z,70.78
2023-03-13T11:36:04.241Z,70.63
2023-03-13T11:40:21.450Z,70.37
2023-03-13T11:44:38.324Z,69.93
2023-03-13T11:49:12.012Z,70.50
2023-03-13T11:53:44.429Z,70.17
2023-03-13T11:58:01.230Z,68.72
2023-03-13T12:02:12.102Z,66.40
2023-03-13T12:06:30.108Z,63.42
2023-03-13T12:10:40.156Z,62.08
2023-03-13T12:14:45.911Z,62.49
2023-03-13T12:18:52.005Z,62.26
2023-03-13T12:23:01.116Z,62.69
2023-03-13T12:27:12.048Z,64.95
2023-03-13T12:31:25.229Z,66.19
2023-03-13T12:35:33.456Z,67.78
2023-03-13T12:39:40.498Z,67.65
2023-03-13T12:43:47.911Z,67.82
2023-03-13T12:48:26.258Z,67.97
2023-03-13T12:53:14.927Z,68.55
2023-03-13T12:58:07.441Z,69.23
2023-03-13T13:02:24.606Z,63.71
2023-03-13T13:06:31.809Z,58.06
2023-03-13T13:10:46.824Z,56.10
2023-03-13T13:15:25.478Z,52.62
2023-03-13T13:19:47.451Z,50.24
2023-03-13T13:23:50.685Z,50.58
2023-03-13T13:27:53.462Z,48.68
2023-03-13T13:32:02.836Z,49.85
2023-03-13T13:36:33.383Z,47.25
2023-03-13T13:40:35.227Z,49.42
2023-03-13T13:44:38.411Z,46.94
2023-03-13T13:48:40.105Z,47.32
2023-03-13T13:52:42.208Z,46.83
2023-03-13T13:56:53.465Z,48.62
2023-03-13T14:01:09.548Z,51.42
2023-03-13T14:05:24.646Z,51.62
2023-03-13T14:09:56.383Z,51.18
2023-03-13T14:14:18.724Z,50.17
2023-03-13T14:18:27.029Z,46.71
2023-03-13T14:22:27.106Z,46.75
2023-03-13T14:26:30.670Z,46.33
2023-03-13T14:30:30.977Z,46.32
2023-03-13T14:34:33.821Z,47.33
2023-03-13T14:38:34.096Z,48.59
2023-03-13T14:42:45.920Z,49.92
2023-03-13T14:46:47.261Z,51.32
2023-03-13T14:50:50.946Z,52.74
2023-03-13T14:54:58.939Z,53.29
2023-03-13T14:59:16.727Z,53.37
2023-03-13T15:03:41.794Z,53.73
2023-03-13T15:07:59.732Z,53.99
2023-03-13T15:12:03.760Z,53.42
2023-03-13T15:16:06.953Z,52.17
2023-03-13T15:20:09.900Z,52.37
2023-03-13T15:24:18.796Z,51.74
2023-03-13T15:28:21.567Z,50.31
2023-03-13T15:32:29.133Z,48.85
2023-03-13T15:36:31.981Z,49.73
2023-03-13T15:40:34.854Z,50.49
2023-03-13T15:44:35.012Z,52.05
2023-03-13T15:48:36.415Z,53.72
2023-03-13T15:52:38.509Z,54.18
2023-03-13T15:56:53.235Z,55.44
2023-03-13T16:00:58.798Z,55.29
2023-03-13T16:05:08.313Z,55.01
2023-03-13T16:09:11.640Z,54.34
2023-03-13T16:13:20.781Z,53.51
2023-03-13T16:17:25.971Z,53.95
2023-03-13T16:21:29.594Z,54.74
2023-03-13T16:25:29.724Z,54.60
2023-03-13T16:29:32.453Z,54.82
2023-03-13T16:33:32.511Z,56.17
2023-03-13T16:37:35.082Z,57.02
2023-03-13T16:41:35.622Z,58.59
2023-03-13T16:45:38.421Z,59.29
2023-03-13T16:49:38.942Z,61.73
2023-03-13T16:53:39.460Z,63.70
2023-03-13T16:57:40.790Z,65.38
2023-03-13T17:01:44.903Z,67.30
2023-03-13T17:05:47.879Z,68.60
2023-03-13T17:09:49.957Z,70.39
2023-03-13T17:13:54.587Z,71.16
2023-03-13T17:23:27.649Z,74.31
2023-03-13T17:27:29.621Z,75.43
2023-03-13T17:31:37.693Z,76.63
2023-03-13T17:35:44.536Z,76.71
2023-03-13T17:39:53.880Z,77.06
2023-03-13T17:43:56.278Z,77.83
2023-03-13T17:48:01.541Z,77.53
2023-03-13T17:52:05.263Z,77.90
2023-03-13T17:56:22.257Z,78.51
2023-03-13T18:00:29.706Z,77.79
2023-03-13T18:04:31.387Z,77.99
2023-03-13T18:08:33.662Z,77.41
2023-03-13T18:12:37.048Z,77.75
2023-03-13T18:16:43.634Z,77.72
2023-03-13T18:20:44.741Z,77.52
2023-03-13T18:24:46.069Z,78.25
2023-03-13T18:28:49.370Z,77.29
2023-03-13T18:32:50.414Z,77.78
2023-03-13T18:36:51.502Z,78.21
2023-03-13T18:40:52.489Z,78.34
2023-03-13T18:44:56.355Z,77.90
2023-03-13T18:48:57.854Z,78.35
2023-03-13T18:53:00.585Z,78.02
2023-03-13T18:57:07.820Z,77.88
2023-03-13T19:01:18.525Z,77.85
2023-03-13T19:05:24.972Z,77.90
2023-03-13T19:09:46.447Z,77.12
2023-03-13T19:13:53.019Z,76.96
2023-03-13T19:17:58.261Z,76.90
2023-03-13T19:21:58.968Z,75.78
2023-03-13T19:25:59.585Z,75.64
2023-03-13T19:30:00.014Z,75.29
2023-03-13T19:34:02.880Z,75.30
2023-03-13T19:38:03.515Z,75.01
2023-03-13T19:42:06.165Z,74.58
2023-03-13T19:46:23.510Z,74.28
2023-03-13T19:50:31.451Z,74.13
2023-03-13T19:54:32.046Z,73.61
2023-03-13T19:58:32.310Z,73.37
2023-03-13T20:02:32.692Z,73.75
2023-03-13T20:06:37.719Z,73.75
2023-03-13T20:10:38.034Z,77.09
2023-03-13T20:14:39.060Z,74.92
2023-03-13T20:18:39.545Z,73.16
2023-03-13T20:22:42.436Z,72.86
2023-03-13T20:26:42.957Z,71.64
2023-03-13T20:30:44.899Z,70.65
2023-03-13T20:34:46.211Z,70.49
2023-03-13T20:38:49.593Z,71.34
2023-03-13T20:42:50.240Z,72.33
2023-03-13T20:46:50.632Z,74.36
2023-03-13T20:50:56.024Z,77.87
2023-03-13T20:54:59.750Z,83.53
2023-03-13T20:59:00.178Z,87.37
2023-03-13T21:03:00.547Z,91.45
2023-03-13T21:07:04.699Z,94.83
2023-03-13T21:11:14.711Z,99.12
2023-03-13T21:15:16.522Z,97.73
2023-03-13T21:19:17.285Z,96.66
2023-03-13T21:23:17.439Z,97.99
2023-03-13T21:27:20.693Z,99.18
2023-03-13T21:31:22.617Z,98.72
2023-03-13T21:35:23.555Z,98.28
2023-03-13T21:39:23.861Z,99.92
2023-03-13T21:43:28.296Z,99.88
2023-03-13T21:47:29.079Z,99.65
2023-03-13T21:51:29.972Z,99.05
2023-03-13T21:55:31.816Z,99.21
2023-03-13T21:59:35.039Z,100.00
2023-03-13T22:03:35.410Z,100.00
2023-03-13T22:07:36.027Z,100.00
2023-03-13T22:11:37.920Z,100.00
2023-03-13T22:15:43.596Z,100.00
2023-03-13T22:19:43.966Z,100.00
2023-03-13T22:23:44.167Z,100.00
2023-03-13T22:27:45.000Z,99.20
2023-03-13T22:31:47.805Z,94.36
2023-03-13T22:35:54.969Z,94.28
2023-03-13T22:39:56.347Z,92.74
2023-03-13T22:43:56.635Z,92.32
2023-03-13T22:47:59.793Z,93.35
2023-03-13T22:52:02.693Z,94.55
2023-03-13T22:56:03.601Z,96.70
2023-03-13T23:00:05.320Z,98.55
2023-03-13T23:04:09.223Z,99.83
2023-03-13T23:08:09.648Z,100.00
2023-03-13T23:12:10.399Z,100.00
2023-03-13T23:16:16.695Z,99.76
2023-03-13T23:20:22.435Z,99.83
2023-03-13T23:24:26.109Z,99.75
2023-03-13T23:28:28.044Z,100.00
2023-03-13T23:32:30.685Z,99.96
2023-03-13T23:36:34.601Z,99.65
2023-03-13T23:40:34.927Z,99.81
2023-03-13T23:44:35.578Z,100.00
2023-03-13T23:48:35.982Z,99.92
2023-03-13T23:52:39.913Z,99.38
2023-03-13T23:56:40.427Z,100.00
